createdAt,value
2017-09-14T00:00:27.474Z,0
2017-09-14T00:01:08.029Z,0
2017-09-14T00:01:48.587Z,0
2017-09-14T00:02:29.161Z,0
2017-09-14T00:03:09.719Z,0
2017-09-14T00:03:50.280Z,0
2017-09-14T00:04:30.861Z,0
2017-09-14T00:05:11.413Z,0
2017-09-14T00:05:51.981Z,0
2017-09-14T00:06:32.549Z,0
2017-09-14T00:07:13.102Z,0
2017-09-14T00:07:53.661Z,0
2017-09-14T00:08:34.201Z,0
2017-09-14T00:09:14.755Z,0
2017-09-14T00:09:55.325Z,0
2017-09-14T00:10:35.891Z,0
2017-09-14T00:11:16.453Z,0
2017-09-14T00:11:57.024Z,0
2017-09-14T00:12:37.593Z,0
2017-09-14T00:13:18.159Z,0
2017-09-14T00:13:58.729Z,0
2017-09-14T00:14:39.277Z,0
2017-09-14T00:15:19.834Z,0
2017-09-14T00:16:00.405Z,0
2017-09-14T00:16:40.973Z,0
2017-09-14T00:17:21.532Z,0
2017-09-14T00:18:02.105Z,0
2017-09-14T00:18:42.641Z,0
2017-09-14T00:19:23.227Z,0
2017-09-14T00:20:03.772Z,0
2017-09-14T00:20:44.321Z,0
2017-09-14T00:21:24.861Z,0
2017-09-14T00:22:05.451Z,0
2017-09-14T00:22:46.017Z,0
2017-09-14T00:23:26.588Z,0
2017-09-14T00:24:07.141Z,0
2017-09-14T00:24:47.697Z,0
2017-09-14T00:25:28.267Z,0
2017-09-14T00:26:08.842Z,0
2017-09-14T00:26:49.394Z,0
2017-09-14T00:27:29.958Z,0
2017-09-14T00:28:10.514Z,0
2017-09-14T00:28:51.079Z,0
2017-09-14T00:29:31.649Z,0
2017-09-14T00:30:12.220Z,0
2017-09-14T00:30:52.774Z,0
2017-09-14T00:31:33.345Z,0
2017-09-14T00:32:13.905Z,0
2017-09-14T00:32:54.460Z,0
2017-09-14T00:33:35.018Z,0
2017-09-14T00:34:15.585Z,0
2017-09-14T00:34:56.129Z,0
2017-09-14T00:35:36.699Z,0
2017-09-14T00:36:17.253Z,0
2017-09-14T00:36:57.829Z,0
2017-09-14T00:37:38.387Z,0
2017-09-14T00:38:18.954Z,0
2017-09-14T00:38:59.524Z,0
2017-09-14T00:39:40.079Z,0
2017-09-14T00:40:20.657Z,0
2017-09-14T00:41:01.202Z,0
2017-09-14T00:41:41.762Z,0
2017-09-14T00:42:22.331Z,0
2017-09-14T00:43:02.883Z,0
2017-09-14T00:43:43.453Z,0
2017-09-14T00:44:24.015Z,0
2017-09-14T00:45:04.588Z,0
2017-09-14T00:45:45.149Z,0
2017-09-14T00:46:25.717Z,0
2017-09-14T00:47:06.271Z,0
2017-09-14T00:47:46.832Z,0
2017-09-14T00:48:27.361Z,0
2017-09-14T00:49:07.912Z,0
2017-09-14T00:49:48.481Z,0
2017-09-14T00:50:29.041Z,0
2017-09-14T00:51:09.620Z,0
2017-09-14T00:51:50.192Z,0
2017-09-14T00:52:30.739Z,0
2017-09-14T00:53:11.301Z,0
2017-09-14T00:53:51.845Z,0
2017-09-14T00:54:32.418Z,0
2017-09-14T00:55:12.980Z,0
2017-09-14T00:55:53.550Z,0
2017-09-14T00:56:34.132Z,0
2017-09-14T00:57:14.700Z,0
2017-09-14T00:57:55.260Z,0
2017-09-14T00:58:35.828Z,0
2017-09-14T00:59:16.393Z,0
2017-09-14T00:59:56.946Z,0
2017-09-14T01:00:37.505Z,0
2017-09-14T01:01:18.087Z,0
2017-09-14T01:01:58.657Z,0
2017-09-14T01:02:39.222Z,0
2017-09-14T01:03:19.794Z,0
2017-09-14T01:04:00.346Z,0
2017-09-14T01:04:40.903Z,0
2017-09-14T01:05:21.480Z,0
2017-09-14T01:06:02.049Z,0
2017-09-14T01:06:42.619Z,0
2017-09-14T01:07:23.175Z,0
2017-09-14T01:08:03.730Z,0
2017-09-14T01:08:44.284Z,0
2017-09-14T01:09:24.850Z,0
2017-09-14T01:10:05.384Z,0
2017-09-14T01:10:45.955Z,0
2017-09-14T01:11:26.510Z,0
2017-09-14T01:12:07.085Z,0
2017-09-14T01:12:47.653Z,0
2017-09-14T01:13:28.205Z,0
2017-09-14T01:14:08.768Z,0
2017-09-14T01:14:49.318Z,0
2017-09-14T01:15:29.888Z,0
2017-09-14T01:16:10.461Z,0
2017-09-14T01:16:51.012Z,0
2017-09-14T01:17:31.585Z,0
2017-09-14T01:18:12.153Z,0
2017-09-14T01:18:52.717Z,0
2017-09-14T01:19:33.267Z,0
2017-09-14T01:20:13.855Z,0
2017-09-14T01:20:54.421Z,0
2017-09-14T01:21:34.979Z,0
2017-09-14T01:22:15.534Z,0
2017-09-14T01:22:56.065Z,0
2017-09-14T01:23:36.669Z,0
2017-09-14T01:24:17.237Z,0
2017-09-14T01:24:57.804Z,0
2017-09-14T01:25:38.359Z,0
2017-09-14T01:26:18.930Z,0
2017-09-14T01:26:59.497Z,0
2017-09-14T01:27:40.073Z,0
2017-09-14T01:28:20.640Z,0
2017-09-14T01:29:01.245Z,0
2017-09-14T01:29:41.812Z,0
2017-09-14T01:30:22.359Z,0
2017-09-14T01:31:02.968Z,0
2017-09-14T01:31:43.536Z,0
2017-09-14T01:32:24.104Z,0
2017-09-14T01:33:04.691Z,0
2017-09-14T01:33:45.249Z,0
2017-09-14T01:34:25.813Z,0
2017-09-14T01:35:06.385Z,0
2017-09-14T01:35:46.930Z,0
2017-09-14T01:36:27.509Z,0
2017-09-14T01:37:08.073Z,0
2017-09-14T01:37:48.635Z,0
2017-09-14T01:38:29.193Z,0
2017-09-14T01:39:09.768Z,0
2017-09-14T01:39:50.332Z,0
2017-09-14T01:40:30.899Z,0
2017-09-14T01:41:11.462Z,0
2017-09-14T01:41:52.042Z,0
2017-09-14T01:42:32.607Z,0
2017-09-14T01:43:13.174Z,0
2017-09-14T01:43:53.756Z,0
2017-09-14T01:44:34.319Z,0
2017-09-14T01:45:14.870Z,0
2017-09-14T01:45:55.442Z,0
2017-09-14T01:46:36.010Z,0
2017-09-14T01:47:16.556Z,0
2017-09-14T01:47:57.126Z,0
2017-09-14T01:48:37.702Z,0
2017-09-14T01:49:18.254Z,0
2017-09-14T01:49:58.829Z,0
2017-09-14T01:50:39.381Z,0
2017-09-14T01:51:19.923Z,0
2017-09-14T01:52:00.507Z,0
2017-09-14T01:52:41.072Z,0
2017-09-14T01:53:21.630Z,0
2017-09-14T01:54:02.193Z,0
2017-09-14T01:54:42.792Z,0
2017-09-14T01:55:23.332Z,0
2017-09-14T01:56:03.909Z,0
2017-09-14T01:56:44.474Z,0
2017-09-14T01:57:25.049Z,0
2017-09-14T01:58:05.617Z,0
2017-09-14T01:58:46.186Z,0
2017-09-14T01:59:26.743Z,0
2017-09-14T02:00:07.323Z,0
2017-09-14T02:00:47.891Z,0
2017-09-14T02:01:28.454Z,0
2017-09-14T02:02:09.016Z,0
2017-09-14T02:02:49.580Z,0
2017-09-14T02:03:30.140Z,0
2017-09-14T02:04:10.728Z,0
2017-09-14T02:04:51.284Z,0
2017-09-14T02:05:31.854Z,0
2017-09-14T02:06:12.424Z,0
2017-09-14T02:06:52.969Z,0
2017-09-14T02:07:33.542Z,0
2017-09-14T02:08:14.098Z,0
2017-09-14T02:08:54.668Z,0
2017-09-14T02:09:35.231Z,0
2017-09-14T02:10:15.803Z,0
2017-09-14T02:10:56.354Z,0
2017-09-14T02:11:36.926Z,0
2017-09-14T02:12:17.474Z,0
2017-09-14T02:12:58.046Z,0
2017-09-14T02:13:38.622Z,0
2017-09-14T02:14:19.172Z,0
2017-09-14T02:14:59.730Z,0
2017-09-14T02:15:40.307Z,0
2017-09-14T02:16:20.860Z,0
2017-09-14T02:17:01.424Z,0
2017-09-14T02:17:41.970Z,0
2017-09-14T02:18:22.529Z,0
2017-09-14T02:19:03.095Z,0
2017-09-14T02:19:43.666Z,0
2017-09-14T02:20:24.234Z,0
2017-09-14T02:21:04.810Z,0
2017-09-14T02:21:45.366Z,0
2017-09-14T02:22:25.935Z,0
2017-09-14T02:23:06.470Z,0
2017-09-14T02:23:47.021Z,0
2017-09-14T02:24:27.586Z,0
2017-09-14T02:25:08.126Z,0
2017-09-14T02:25:48.705Z,0
2017-09-14T02:26:29.244Z,0
2017-09-14T02:27:09.789Z,0
2017-09-14T02:27:50.349Z,0
2017-09-14T02:28:30.914Z,0
2017-09-14T02:29:11.468Z,0
2017-09-14T02:29:52.038Z,0
2017-09-14T02:30:32.598Z,0
2017-09-14T02:31:13.159Z,0
2017-09-14T02:31:53.742Z,0
2017-09-14T02:32:34.297Z,0
2017-09-14T02:33:14.876Z,0
2017-09-14T02:33:55.473Z,0
2017-09-14T02:34:36.027Z,0
2017-09-14T02:35:16.589Z,0
2017-09-14T02:35:57.135Z,0
2017-09-14T02:36:37.676Z,0
2017-09-14T02:37:18.228Z,0
2017-09-14T02:37:58.775Z,0
2017-09-14T02:38:39.326Z,0
2017-09-14T02:39:19.891Z,0
2017-09-14T02:40:00.460Z,0
2017-09-14T02:40:40.989Z,0
2017-09-14T02:41:21.544Z,0
2017-09-14T02:42:02.108Z,0
2017-09-14T02:42:42.649Z,0
2017-09-14T02:43:23.201Z,0
2017-09-14T02:44:03.754Z,0
2017-09-14T02:44:44.314Z,0
2017-09-14T02:45:24.862Z,0
2017-09-14T02:46:05.451Z,0
2017-09-14T02:46:46.030Z,0
2017-09-14T02:47:26.581Z,0
2017-09-14T02:48:07.231Z,0
2017-09-14T02:48:47.805Z,0
2017-09-14T02:49:28.364Z,0
2017-09-14T02:50:08.943Z,0
2017-09-14T02:50:49.507Z,0
2017-09-14T02:51:30.077Z,0
2017-09-14T02:52:10.639Z,0
2017-09-14T02:52:51.204Z,0
2017-09-14T02:53:31.772Z,0
2017-09-14T02:54:12.328Z,0
2017-09-14T02:54:52.864Z,0
2017-09-14T02:55:33.427Z,0
2017-09-14T02:56:13.972Z,0
2017-09-14T02:56:54.539Z,0
2017-09-14T02:57:35.109Z,0
2017-09-14T02:58:15.681Z,0
2017-09-14T02:58:56.229Z,0
2017-09-14T02:59:36.799Z,0
2017-09-14T03:00:17.359Z,0
2017-09-14T03:00:57.897Z,0
2017-09-14T03:01:38.461Z,0
2017-09-14T03:02:19.025Z,0
2017-09-14T03:02:59.583Z,0
2017-09-14T03:03:40.140Z,0
2017-09-14T03:04:20.711Z,0
2017-09-14T03:05:01.268Z,0
2017-09-14T03:05:41.832Z,0
2017-09-14T03:06:22.396Z,0
2017-09-14T03:07:02.963Z,0
2017-09-14T03:07:43.513Z,0
2017-09-14T03:08:24.071Z,0
2017-09-14T03:09:04.640Z,0
2017-09-14T03:09:45.206Z,0
2017-09-14T03:10:25.773Z,0
2017-09-14T03:11:06.326Z,0
2017-09-14T03:11:46.948Z,0
2017-09-14T03:12:27.494Z,0
2017-09-14T03:13:08.081Z,0
2017-09-14T03:13:48.659Z,0
2017-09-14T03:14:29.217Z,0
2017-09-14T03:15:09.767Z,0
2017-09-14T03:15:50.336Z,0
2017-09-14T03:16:30.898Z,0
2017-09-14T03:17:11.459Z,0
2017-09-14T03:17:52.011Z,0
2017-09-14T03:18:32.584Z,0
2017-09-14T03:19:13.178Z,0
2017-09-14T03:19:53.723Z,0
2017-09-14T03:20:34.318Z,0
2017-09-14T03:21:14.851Z,0
2017-09-14T03:21:55.409Z,0
2017-09-14T03:22:35.980Z,0
2017-09-14T03:23:16.551Z,0
2017-09-14T03:23:57.119Z,0
2017-09-14T03:24:37.674Z,0
2017-09-14T03:25:18.241Z,0
2017-09-14T03:25:58.807Z,0
2017-09-14T03:26:40.209Z,0
2017-09-14T03:27:19.943Z,0
2017-09-14T03:28:00.518Z,0
2017-09-14T03:28:41.081Z,0
2017-09-14T03:29:21.649Z,0
2017-09-14T03:30:02.224Z,0
2017-09-14T03:30:42.781Z,0
2017-09-14T03:31:23.360Z,0
2017-09-14T03:32:03.917Z,0
2017-09-14T03:32:44.480Z,0
2017-09-14T03:33:25.036Z,0
2017-09-14T03:34:05.605Z,0
2017-09-14T03:34:46.161Z,0
2017-09-14T03:35:26.717Z,0
2017-09-14T03:36:07.285Z,0
2017-09-14T03:36:47.857Z,0
2017-09-14T03:37:28.417Z,0
2017-09-14T03:38:08.976Z,0
2017-09-14T03:38:49.536Z,0
2017-09-14T03:39:30.102Z,0
2017-09-14T03:40:10.649Z,0
2017-09-14T03:40:51.204Z,0
2017-09-14T03:41:31.769Z,0
2017-09-14T03:42:12.320Z,0
2017-09-14T03:42:52.868Z,0
2017-09-14T03:43:33.433Z,0
2017-09-14T03:44:13.980Z,0
2017-09-14T03:44:54.525Z,0
2017-09-14T03:45:35.086Z,0
2017-09-14T03:46:15.640Z,0
2017-09-14T03:46:56.232Z,0
2017-09-14T03:47:36.768Z,0
2017-09-14T03:48:17.343Z,0
2017-09-14T03:48:57.904Z,0
2017-09-14T03:49:38.616Z,0
2017-09-14T03:50:19.173Z,0
2017-09-14T03:50:59.731Z,0
2017-09-14T03:51:40.272Z,0
2017-09-14T03:52:20.827Z,0
2017-09-14T03:53:01.399Z,0
2017-09-14T03:53:42.014Z,0
2017-09-14T03:54:22.546Z,0
2017-09-14T03:55:03.117Z,0
2017-09-14T03:55:43.704Z,0
2017-09-14T03:56:24.274Z,0
2017-09-14T03:57:04.850Z,0
2017-09-14T03:57:45.412Z,0
2017-09-14T03:58:25.980Z,0
2017-09-14T03:59:06.564Z,0
2017-09-14T03:59:47.121Z,0
2017-09-14T04:00:27.674Z,0
2017-09-14T04:01:08.231Z,0
2017-09-14T04:01:48.780Z,0
2017-09-14T04:02:29.352Z,0
2017-09-14T04:03:09.921Z,0
2017-09-14T04:03:50.490Z,0
2017-09-14T04:04:31.064Z,0
2017-09-14T04:05:11.638Z,0
2017-09-14T04:05:52.215Z,0
2017-09-14T04:06:32.775Z,0
2017-09-14T04:07:13.339Z,0
2017-09-14T04:07:53.903Z,0
2017-09-14T04:08:34.477Z,0
2017-09-14T04:09:15.042Z,0
2017-09-14T04:09:55.591Z,0
2017-09-14T04:10:36.140Z,0
2017-09-14T04:11:16.674Z,0
2017-09-14T04:11:57.242Z,0
2017-09-14T04:12:37.817Z,0
2017-09-14T04:13:18.356Z,0
2017-09-14T04:13:58.907Z,0
2017-09-14T04:14:39.473Z,0
2017-09-14T04:15:20.023Z,0
2017-09-14T04:16:00.607Z,0
2017-09-14T04:16:41.176Z,0
2017-09-14T04:17:21.749Z,0
2017-09-14T04:18:02.335Z,0
2017-09-14T04:18:42.896Z,0
2017-09-14T04:19:23.466Z,0
2017-09-14T04:20:04.016Z,0
2017-09-14T04:20:44.610Z,0
2017-09-14T04:21:25.177Z,0
2017-09-14T04:22:05.751Z,0
2017-09-14T04:22:46.325Z,0
2017-09-14T04:23:26.878Z,0
2017-09-14T04:24:07.426Z,0
2017-09-14T04:24:47.972Z,0
2017-09-14T04:25:28.513Z,0
2017-09-14T04:26:09.055Z,0
2017-09-14T04:26:49.632Z,0
2017-09-14T04:27:30.234Z,0
2017-09-14T04:28:10.807Z,0
2017-09-14T04:28:51.387Z,0
2017-09-14T04:29:31.954Z,0
2017-09-14T04:30:12.512Z,0
2017-09-14T04:30:53.068Z,0
2017-09-14T04:31:33.633Z,0
2017-09-14T04:32:14.204Z,0
2017-09-14T04:32:54.745Z,0
2017-09-14T04:33:35.310Z,0
2017-09-14T04:34:15.889Z,0
2017-09-14T04:34:56.423Z,0
2017-09-14T04:35:36.982Z,0
2017-09-14T04:36:17.542Z,0
2017-09-14T04:36:58.112Z,0
2017-09-14T04:37:38.665Z,0
2017-09-14T04:38:19.222Z,0
2017-09-14T04:38:59.770Z,0
2017-09-14T04:39:40.300Z,0
2017-09-14T04:40:20.882Z,0
2017-09-14T04:41:01.444Z,0
2017-09-14T04:41:42.018Z,0
2017-09-14T04:42:22.575Z,0
2017-09-14T04:43:03.129Z,0
2017-09-14T04:43:43.684Z,0
2017-09-14T04:44:24.300Z,0
2017-09-14T04:45:04.856Z,0
2017-09-14T04:45:45.439Z,0
2017-09-14T04:46:26.020Z,0
2017-09-14T04:47:06.592Z,0
2017-09-14T04:47:47.171Z,0
2017-09-14T04:48:27.761Z,0
2017-09-14T04:49:08.315Z,0
2017-09-14T04:49:48.868Z,0
2017-09-14T04:50:29.411Z,0
2017-09-14T04:51:09.964Z,0
2017-09-14T04:51:50.524Z,0
2017-09-14T04:52:31.081Z,0
2017-09-14T04:53:11.646Z,0
2017-09-14T04:53:52.214Z,0
2017-09-14T04:54:32.758Z,0
2017-09-14T04:55:13.318Z,0
2017-09-14T04:55:53.902Z,0
2017-09-14T04:56:34.489Z,0
2017-09-14T04:57:15.057Z,0
2017-09-14T04:57:55.620Z,0
2017-09-14T04:58:36.200Z,0
2017-09-14T04:59:16.773Z,0
2017-09-14T04:59:57.336Z,0
2017-09-14T05:00:37.886Z,0
2017-09-14T05:01:18.433Z,0
2017-09-14T05:01:58.980Z,0
2017-09-14T05:02:39.544Z,0
2017-09-14T05:03:20.110Z,0
2017-09-14T05:04:00.671Z,0
2017-09-14T05:04:41.238Z,0
2017-09-14T05:05:21.826Z,0
2017-09-14T05:06:02.396Z,0
2017-09-14T05:06:42.952Z,0
2017-09-14T05:07:23.527Z,0
2017-09-14T05:08:04.163Z,0
2017-09-14T05:08:44.741Z,0
2017-09-14T05:09:25.280Z,0
2017-09-14T05:10:05.879Z,0
2017-09-14T05:10:46.452Z,0
2017-09-14T05:11:27.016Z,0
2017-09-14T05:12:08.251Z,0
2017-09-14T05:12:48.834Z,0
2017-09-14T05:13:29.405Z,0
2017-09-14T05:14:09.927Z,0
2017-09-14T05:14:50.480Z,0
2017-09-14T05:15:31.046Z,0
2017-09-14T05:16:11.613Z,0
2017-09-14T05:16:52.177Z,0
2017-09-14T05:17:32.747Z,0
2017-09-14T05:18:13.327Z,0
2017-09-14T05:18:53.873Z,0
2017-09-14T05:19:34.430Z,0
2017-09-14T05:20:14.972Z,0
2017-09-14T05:20:55.519Z,0
2017-09-14T05:21:36.116Z,0
2017-09-14T05:22:16.630Z,0
2017-09-14T05:22:57.200Z,5
2017-09-14T05:23:37.979Z,5
2017-09-14T05:24:18.536Z,5
2017-09-14T05:24:59.141Z,5
2017-09-14T05:25:39.725Z,5
2017-09-14T05:26:20.410Z,5
2017-09-14T05:27:00.969Z,5
2017-09-14T05:27:41.529Z,5
2017-09-14T05:28:22.082Z,5
2017-09-14T05:29:02.611Z,5
2017-09-14T05:29:43.174Z,5
2017-09-14T05:30:23.715Z,5
2017-09-14T05:31:04.263Z,5
2017-09-14T05:31:44.823Z,5
2017-09-14T05:32:25.381Z,5
2017-09-14T05:33:05.968Z,5
2017-09-14T05:33:46.492Z,5
2017-09-14T05:34:27.048Z,5
2017-09-14T05:35:07.592Z,5
2017-09-14T05:35:48.149Z,5
2017-09-14T05:36:28.782Z,5
2017-09-14T05:37:09.319Z,5
2017-09-14T05:37:49.880Z,5
2017-09-14T05:38:30.443Z,5
2017-09-14T05:39:11.006Z,5
2017-09-14T05:39:51.582Z,5
2017-09-14T05:40:32.108Z,5
2017-09-14T05:41:12.645Z,5
2017-09-14T05:41:53.204Z,5
2017-09-14T05:42:33.738Z,5
2017-09-14T05:43:14.292Z,5
2017-09-14T05:43:54.813Z,5
2017-09-14T05:44:35.383Z,5
2017-09-14T05:45:15.946Z,5
2017-09-14T05:45:57.071Z,5
2017-09-14T05:46:37.666Z,5
2017-09-14T05:47:18.226Z,5
2017-09-14T05:47:58.746Z,5
2017-09-14T05:48:39.326Z,5
2017-09-14T05:49:19.880Z,5
2017-09-14T05:50:00.368Z,5
2017-09-14T05:50:40.947Z,5
2017-09-14T05:51:21.436Z,5
2017-09-14T05:52:01.966Z,5
2017-09-14T05:52:42.504Z,5
2017-09-14T05:53:23.072Z,5
2017-09-14T05:54:03.718Z,5
2017-09-14T05:54:44.166Z,5
2017-09-14T05:55:24.653Z,5
2017-09-14T05:56:05.220Z,5
2017-09-14T05:56:45.767Z,0
2017-09-14T05:57:26.278Z,0
2017-09-14T05:58:06.840Z,5
2017-09-14T05:58:47.366Z,5
2017-09-14T05:59:27.901Z,5
2017-09-14T06:00:08.423Z,5
2017-09-14T06:00:49.030Z,5
2017-09-14T06:01:29.557Z,5
2017-09-14T06:02:11.017Z,5
2017-09-14T06:02:51.677Z,10
2017-09-14T06:03:32.083Z,10
2017-09-14T06:04:12.775Z,10
2017-09-14T06:04:53.277Z,10
2017-09-14T06:05:33.819Z,10
2017-09-14T06:06:14.378Z,10
2017-09-14T06:06:55.184Z,10
2017-09-14T06:07:35.534Z,10
2017-09-14T06:08:16.041Z,10
2017-09-14T06:08:56.585Z,10
2017-09-14T06:09:37.096Z,10
2017-09-14T06:10:17.676Z,10
2017-09-14T06:10:58.259Z,10
2017-09-14T06:11:38.805Z,10
2017-09-14T06:12:19.370Z,10
2017-09-14T06:12:59.936Z,10
2017-09-14T06:13:40.518Z,10
2017-09-14T06:14:21.051Z,10
2017-09-14T06:15:01.640Z,10
2017-09-14T06:15:42.162Z,10
2017-09-14T06:16:22.729Z,10
2017-09-14T06:17:03.295Z,10
2017-09-14T06:17:43.886Z,10
2017-09-14T06:18:24.426Z,10
2017-09-14T06:19:04.990Z,10
2017-09-14T06:19:45.546Z,10
2017-09-14T06:20:26.099Z,10
2017-09-14T06:21:06.660Z,10
2017-09-14T06:21:47.225Z,10
2017-09-14T06:22:27.802Z,10
2017-09-14T06:23:08.332Z,10
2017-09-14T06:23:48.872Z,10
2017-09-14T06:24:29.432Z,10
2017-09-14T06:25:09.989Z,15
2017-09-14T06:25:50.554Z,15
2017-09-14T06:26:31.092Z,20
2017-09-14T06:27:11.715Z,15
2017-09-14T06:27:52.236Z,15
2017-09-14T06:28:32.793Z,15
2017-09-14T06:29:13.340Z,10
2017-09-14T06:31:41.959Z,5
2017-09-14T06:32:22.536Z,5
2017-09-14T06:33:03.086Z,5
2017-09-14T06:33:43.649Z,10
2017-09-14T06:34:24.188Z,10
2017-09-14T06:35:04.755Z,10
2017-09-14T06:35:45.305Z,10
2017-09-14T06:36:25.881Z,10
2017-09-14T06:37:06.440Z,10
2017-09-14T06:37:46.996Z,10
2017-09-14T06:38:27.538Z,10
2017-09-14T06:39:08.073Z,10
2017-09-14T06:39:48.596Z,10
2017-09-14T06:40:29.235Z,10
2017-09-14T06:41:09.873Z,10
2017-09-14T06:41:50.359Z,15
2017-09-14T06:42:30.939Z,15
2017-09-14T06:43:11.451Z,20
2017-09-14T06:43:51.988Z,20
2017-09-14T06:44:32.531Z,20
2017-09-14T06:45:13.117Z,20
2017-09-14T06:45:53.657Z,20
2017-09-14T06:46:34.253Z,20
2017-09-14T06:47:14.819Z,20
2017-09-14T06:47:55.405Z,20
2017-09-14T06:48:35.899Z,20
2017-09-14T06:49:16.450Z,20
2017-09-14T06:49:57.011Z,20
2017-09-14T06:50:37.561Z,15
2017-09-14T06:51:18.061Z,15
2017-09-14T06:51:58.611Z,15
2017-09-14T06:52:39.151Z,15
2017-09-14T06:53:19.677Z,15
2017-09-14T06:54:00.237Z,15
2017-09-14T06:54:40.808Z,15
2017-09-14T06:55:21.307Z,15
2017-09-14T06:56:01.846Z,15
2017-09-14T06:56:42.473Z,15
2017-09-14T06:57:23.055Z,15
2017-09-14T06:58:03.568Z,15
2017-09-14T06:58:44.099Z,15
2017-09-14T06:59:24.695Z,15
2017-09-14T07:00:05.191Z,15
2017-09-14T07:00:45.750Z,15
2017-09-14T07:01:26.253Z,15
2017-09-14T07:02:06.785Z,15
2017-09-14T07:02:47.358Z,15
2017-09-14T07:03:27.924Z,10
2017-09-14T07:04:08.441Z,15
2017-09-14T07:04:49.000Z,15
2017-09-14T07:05:29.625Z,15
2017-09-14T07:06:10.106Z,15
2017-09-14T07:06:50.639Z,15
2017-09-14T07:07:31.212Z,15
2017-09-14T07:08:11.722Z,15
2017-09-14T07:08:52.239Z,15
2017-09-14T07:09:32.776Z,15
2017-09-14T07:10:13.305Z,15
2017-09-14T07:10:53.848Z,15
2017-09-14T07:11:34.396Z,15
2017-09-14T07:12:14.919Z,15
2017-09-14T07:12:55.426Z,15
2017-09-14T07:13:36.002Z,15
2017-09-14T07:14:16.495Z,20
2017-09-14T07:14:57.013Z,20
2017-09-14T07:15:37.577Z,20
2017-09-14T07:16:18.074Z,20
2017-09-14T07:16:58.580Z,25
2017-09-14T07:17:39.141Z,25
2017-09-14T07:18:19.716Z,25
2017-09-14T07:19:00.255Z,30
2017-09-14T07:19:40.793Z,30
2017-09-14T07:20:21.357Z,30
2017-09-14T07:21:01.917Z,30
2017-09-14T07:21:42.477Z,30
2017-09-14T07:22:23.010Z,25
2017-09-14T07:23:03.538Z,25
2017-09-14T07:23:44.092Z,30
2017-09-14T07:24:24.635Z,30
2017-09-14T07:25:05.170Z,30
2017-09-14T07:25:45.728Z,30
2017-09-14T07:26:26.301Z,30
2017-09-14T07:27:06.868Z,30
2017-09-14T07:27:47.404Z,30
2017-09-14T07:28:27.950Z,30
2017-09-14T07:29:08.524Z,25
2017-09-14T07:29:49.086Z,25
2017-09-14T07:30:29.650Z,20
2017-09-14T07:31:10.170Z,20
2017-09-14T07:31:50.749Z,25
2017-09-14T07:32:31.300Z,25
2017-09-14T07:33:11.844Z,25
2017-09-14T07:33:52.431Z,30
2017-09-14T07:34:32.958Z,35
2017-09-14T07:35:13.519Z,35
2017-09-14T07:35:54.065Z,35
2017-09-14T07:36:34.581Z,35
2017-09-14T07:37:15.170Z,35
2017-09-14T07:37:55.666Z,35
2017-09-14T07:38:36.209Z,35
2017-09-14T07:39:16.761Z,35
2017-09-14T07:39:57.336Z,40
2017-09-14T07:40:37.862Z,45
2017-09-14T07:41:18.472Z,45
2017-09-14T07:41:58.980Z,45
2017-09-14T07:42:39.547Z,50
2017-09-14T07:43:20.109Z,50
2017-09-14T07:44:00.633Z,50
2017-09-14T07:44:41.190Z,50
2017-09-14T07:45:21.750Z,50
2017-09-14T07:46:02.292Z,45
2017-09-14T07:46:42.874Z,45
2017-09-14T07:47:23.439Z,40
2017-09-14T07:48:03.976Z,35
2017-09-14T07:48:44.486Z,35
2017-09-14T07:49:25.047Z,35
2017-09-14T07:50:05.615Z,35
2017-09-14T07:50:46.156Z,35
2017-09-14T07:51:26.687Z,35
2017-09-14T07:52:07.266Z,35
2017-09-14T07:52:47.806Z,35
2017-09-14T07:53:28.359Z,35
2017-09-14T07:54:08.908Z,40
2017-09-14T07:54:49.469Z,40
2017-09-14T07:55:30.051Z,35
2017-09-14T07:56:10.614Z,35
2017-09-14T07:56:51.177Z,35
2017-09-14T07:57:31.724Z,35
2017-09-14T07:58:12.252Z,40
2017-09-14T07:58:52.813Z,40
2017-09-14T07:59:33.426Z,40
2017-09-14T08:00:13.982Z,35
2017-09-14T08:00:54.532Z,35
2017-09-14T08:01:35.076Z,35
2017-09-14T08:02:15.625Z,40
2017-09-14T08:02:56.188Z,45
2017-09-14T08:03:36.744Z,45
2017-09-14T08:04:17.294Z,45
2017-09-14T08:04:57.865Z,40
2017-09-14T08:05:38.404Z,40
2017-09-14T08:06:18.935Z,40
2017-09-14T08:06:59.477Z,40
2017-09-14T08:07:39.949Z,40
2017-09-14T08:08:20.545Z,40
2017-09-14T08:09:01.136Z,40
2017-09-14T08:09:41.699Z,40
2017-09-14T08:10:22.260Z,45
2017-09-14T08:11:02.811Z,45
2017-09-14T08:11:43.356Z,50
2017-09-14T08:12:23.900Z,55
2017-09-14T08:13:04.463Z,55
2017-09-14T08:13:45.039Z,55
2017-09-14T08:14:25.623Z,50
2017-09-14T08:15:06.201Z,50
2017-09-14T08:15:46.752Z,45
2017-09-14T08:16:27.334Z,45
2017-09-14T08:17:07.893Z,45
2017-09-14T08:17:48.467Z,45
2017-09-14T08:18:28.984Z,45
2017-09-14T08:19:09.534Z,45
2017-09-14T08:19:50.081Z,45
2017-09-14T08:20:30.638Z,40
2017-09-14T08:21:11.174Z,40
2017-09-14T08:21:51.713Z,45
2017-09-14T08:22:32.280Z,50
2017-09-14T08:23:12.851Z,50
2017-09-14T08:23:53.377Z,50
2017-09-14T08:24:33.934Z,50
2017-09-14T08:25:14.494Z,55
2017-09-14T08:25:55.072Z,60
2017-09-14T08:26:35.633Z,65
2017-09-14T08:27:16.182Z,65
2017-09-14T08:27:56.765Z,65
2017-09-14T08:28:37.325Z,60
2017-09-14T08:29:17.863Z,55
2017-09-14T08:29:58.424Z,55
2017-09-14T08:30:39.000Z,55
2017-09-14T08:31:19.550Z,50
2017-09-14T08:32:00.096Z,40
2017-09-14T08:32:40.650Z,35
2017-09-14T08:33:21.243Z,35
2017-09-14T08:34:01.791Z,35
2017-09-14T08:34:42.368Z,40
2017-09-14T08:35:22.920Z,45
2017-09-14T08:36:03.491Z,50
2017-09-14T08:36:44.056Z,50
2017-09-14T08:37:24.607Z,50
2017-09-14T08:38:05.148Z,50
2017-09-14T08:38:45.690Z,55
2017-09-14T08:39:26.250Z,55
2017-09-14T08:40:06.817Z,55
2017-09-14T08:40:47.375Z,60
2017-09-14T08:41:27.963Z,60
2017-09-14T08:42:08.538Z,65
2017-09-14T08:42:49.082Z,65
2017-09-14T08:43:29.605Z,65
2017-09-14T08:44:10.190Z,70
2017-09-14T08:44:50.674Z,75
2017-09-14T08:45:31.210Z,70
2017-09-14T08:46:11.754Z,70
2017-09-14T08:46:52.311Z,75
2017-09-14T08:47:32.867Z,80
2017-09-14T08:48:13.433Z,90
2017-09-14T08:48:53.981Z,95
2017-09-14T08:49:34.540Z,100
2017-09-14T08:50:15.100Z,100
2017-09-14T08:50:55.654Z,95
2017-09-14T08:51:36.210Z,100
2017-09-14T08:52:16.759Z,105
2017-09-14T08:52:57.306Z,95
2017-09-14T08:53:37.877Z,90
2017-09-14T08:54:18.438Z,85
2017-09-14T08:54:59.011Z,85
2017-09-14T08:55:39.546Z,75
2017-09-14T08:56:20.103Z,70
2017-09-14T08:57:00.704Z,65
2017-09-14T08:57:41.286Z,60
2017-09-14T08:58:21.845Z,55
2017-09-14T08:59:02.407Z,50
2017-09-14T08:59:42.976Z,50
2017-09-14T09:00:23.532Z,45
2017-09-14T09:01:04.090Z,45
2017-09-14T09:01:44.629Z,50
2017-09-14T09:02:25.210Z,50
2017-09-14T09:03:05.786Z,50
2017-09-14T09:03:46.326Z,50
2017-09-14T09:04:26.885Z,50
2017-09-14T09:05:07.453Z,50
2017-09-14T09:05:48.031Z,55
2017-09-14T09:06:28.572Z,55
2017-09-14T09:07:09.124Z,60
2017-09-14T09:07:49.673Z,65
2017-09-14T09:08:30.243Z,70
2017-09-14T09:09:10.777Z,65
2017-09-14T09:09:51.326Z,65
2017-09-14T09:10:31.906Z,60
2017-09-14T09:11:12.462Z,60
2017-09-14T09:11:53.003Z,60
2017-09-14T09:12:33.570Z,60
2017-09-14T09:13:14.085Z,55
2017-09-14T09:13:54.656Z,60
2017-09-14T09:14:35.165Z,65
2017-09-14T09:15:15.720Z,65
2017-09-14T09:15:56.262Z,65
2017-09-14T09:16:36.814Z,60
2017-09-14T09:17:17.365Z,60
2017-09-14T09:17:57.936Z,60
2017-09-14T09:18:38.489Z,60
2017-09-14T09:19:19.060Z,60
2017-09-14T09:19:59.600Z,55
2017-09-14T09:20:40.170Z,55
2017-09-14T09:21:20.721Z,55
2017-09-14T09:22:01.314Z,50
2017-09-14T09:22:41.877Z,50
2017-09-14T09:23:22.461Z,45
2017-09-14T09:24:03.013Z,45
2017-09-14T09:24:43.563Z,40
2017-09-14T09:25:24.110Z,40
2017-09-14T09:26:04.676Z,40
2017-09-14T09:26:45.351Z,35
2017-09-14T09:27:25.941Z,35
2017-09-14T09:28:06.495Z,35
2017-09-14T09:28:47.242Z,35
2017-09-14T09:29:27.754Z,40
2017-09-14T09:30:08.249Z,45
2017-09-14T09:30:48.814Z,45
2017-09-14T09:31:29.350Z,50
2017-09-14T09:32:09.905Z,50
2017-09-14T09:32:50.464Z,45
2017-09-14T09:33:31.026Z,50
2017-09-14T09:34:11.563Z,50
2017-09-14T09:34:52.147Z,50
2017-09-14T09:35:32.702Z,50
2017-09-14T09:36:13.250Z,50
2017-09-14T09:36:53.804Z,55
2017-09-14T09:37:34.345Z,55
2017-09-14T09:38:14.915Z,55
2017-09-14T09:38:55.488Z,55
2017-09-14T09:39:36.052Z,55
2017-09-14T09:40:16.611Z,55
2017-09-14T09:40:57.162Z,55
2017-09-14T09:41:37.738Z,60
2017-09-14T09:42:18.291Z,65
2017-09-14T09:42:58.885Z,60
2017-09-14T09:43:39.448Z,55
2017-09-14T09:44:20.034Z,50
2017-09-14T09:45:00.557Z,45
2017-09-14T09:45:41.105Z,40
2017-09-14T09:46:21.726Z,40
2017-09-14T09:47:02.239Z,45
2017-09-14T09:47:42.769Z,50
2017-09-14T09:48:23.294Z,55
2017-09-14T09:49:03.878Z,60
2017-09-14T09:49:44.391Z,60
2017-09-14T09:50:24.975Z,65
2017-09-14T09:51:05.530Z,65
2017-09-14T09:51:46.069Z,65
2017-09-14T09:52:26.645Z,60
2017-09-14T09:53:07.234Z,55